createdAt,value
2022-08-30T00:01:05.174Z,86.60
2022-08-30T00:03:37.033Z,87.00
2022-08-30T00:06:06.555Z,86.20
2022-08-30T00:08:34.639Z,86.30
2022-08-30T00:11:02.281Z,86.50
2022-08-30T00:13:29.633Z,86.80
2022-08-30T00:15:56.527Z,86.60
2022-08-30T00:18:24.582Z,86.90
2022-08-30T00:20:52.489Z,87.20
2022-08-30T00:23:19.962Z,87.40
2022-08-30T00:25:46.637Z,87.10
2022-08-30T00:28:14.706Z,88.10
2022-08-30T00:30:42.727Z,88.10
2022-08-30T00:33:10.794Z,87.80
2022-08-30T00:35:39.946Z,87.40
2022-08-30T00:38:07.689Z,87.70
2022-08-30T00:40:35.209Z,87.40
2022-08-30T00:43:05.953Z,87.70
2022-08-30T00:45:37.540Z,87.40
2022-08-30T00:48:06.490Z,87.70
2022-08-30T00:50:41.629Z,87.40
2022-08-30T00:53:13.563Z,87.60
2022-08-30T00:55:42.129Z,87.70
2022-08-30T00:58:16.726Z,88.30
2022-08-30T01:00:44.096Z,87.70
2022-08-30T01:03:10.826Z,88.00
2022-08-30T01:05:39.301Z,88.20
2022-08-30T01:08:06.771Z,87.70
2022-08-30T01:10:38.253Z,87.70
2022-08-30T01:13:05.577Z,87.50
2022-08-30T01:15:34.282Z,87.60
2022-08-30T01:18:02.950Z,88.60
2022-08-30T01:20:38.982Z,89.40
2022-08-30T01:23:12.506Z,88.90
2022-08-30T01:25:42.374Z,89.10
2022-08-30T01:28:15.643Z,89.20
2022-08-30T01:30:45.794Z,89.50
2022-08-30T01:33:13.285Z,88.90
2022-08-30T01:36:06.155Z,89.70
2022-08-30T01:38:49.122Z,90.20
2022-08-30T01:41:29.046Z,89.40
2022-08-30T01:43:58.937Z,89.20
2022-08-30T01:46:35.935Z,89.60
2022-08-30T01:49:05.218Z,89.00
2022-08-30T01:51:32.265Z,89.30
2022-08-30T01:53:59.869Z,88.90
2022-08-30T01:56:28.860Z,89.70
2022-08-30T01:59:00.447Z,89.70
2022-08-30T02:01:32.605Z,89.40
2022-08-30T02:03:59.566Z,89.60
2022-08-30T02:06:26.659Z,89.50
2022-08-30T02:08:53.369Z,90.10
2022-08-30T02:11:20.241Z,90.00
2022-08-30T02:13:47.473Z,90.00
2022-08-30T02:16:18.032Z,89.80
2022-08-30T02:18:45.470Z,90.10
2022-08-30T02:21:13.760Z,90.40
2022-08-30T02:23:41.435Z,90.10
2022-08-30T02:26:08.922Z,90.50
2022-08-30T02:28:36.004Z,90.60
2022-08-30T02:31:16.460Z,90.40
2022-08-30T02:33:46.912Z,90.80
2022-08-30T02:36:14.033Z,90.80
2022-08-30T02:38:40.704Z,90.90
2022-08-30T02:41:07.735Z,90.90
2022-08-30T02:43:34.397Z,90.90
2022-08-30T02:46:01.064Z,90.90
2022-08-30T02:48:27.970Z,91.20
2022-08-30T02:50:54.681Z,91.20
2022-08-30T02:53:21.474Z,91.30
2022-08-30T02:55:49.194Z,91.40
2022-08-30T02:58:15.952Z,91.60
2022-08-30T03:00:42.852Z,91.90
2022-08-30T03:03:09.922Z,91.90
2022-08-30T03:05:39.651Z,92.10
2022-08-30T03:08:07.724Z,92.30
2022-08-30T03:10:35.161Z,92.50
2022-08-30T03:13:02.426Z,92.60
2022-08-30T03:15:29.192Z,92.70
2022-08-30T03:17:56.150Z,92.90
2022-08-30T03:20:24.187Z,93.00
2022-08-30T03:22:51.847Z,93.30
2022-08-30T03:25:20.729Z,93.30
2022-08-30T03:27:47.919Z,93.30
2022-08-30T03:30:14.722Z,93.50
2022-08-30T03:32:41.957Z,94.00
2022-08-30T03:35:10.276Z,93.90
2022-08-30T03:37:37.432Z,94.00
2022-08-30T03:40:07.253Z,94.20
2022-08-30T03:42:34.061Z,94.30
2022-08-30T03:45:02.272Z,94.50
2022-08-30T03:47:29.670Z,94.50
2022-08-30T03:49:56.757Z,94.70
2022-08-30T03:52:23.560Z,95.00
2022-08-30T03:54:50.229Z,95.20
2022-08-30T03:57:19.685Z,95.40
2022-08-30T03:59:46.963Z,95.70
2022-08-30T04:02:13.831Z,95.90
2022-08-30T04:04:40.671Z,96.30
2022-08-30T04:07:07.416Z,96.30
2022-08-30T04:09:34.047Z,96.70
2022-08-30T04:12:00.810Z,97.00
2022-08-30T04:14:27.518Z,97.60
2022-08-30T04:16:54.253Z,97.50
2022-08-30T04:19:21.020Z,97.40
2022-08-30T04:21:47.666Z,97.40
2022-08-30T04:24:14.387Z,97.80
2022-08-30T04:26:40.994Z,98.00
2022-08-30T04:29:07.762Z,98.20
2022-08-30T04:31:34.572Z,98.30
2022-08-30T04:34:01.353Z,98.50
2022-08-30T04:36:27.976Z,98.60
2022-08-30T04:38:54.651Z,98.70
2022-08-30T04:41:24.585Z,98.40
2022-08-30T04:43:51.263Z,98.10
2022-08-30T04:46:19.269Z,97.80
2022-08-30T04:48:46.577Z,97.90
2022-08-30T04:51:15.290Z,98.30
2022-08-30T04:53:43.051Z,98.20
2022-08-30T04:56:12.484Z,98.60
2022-08-30T04:58:39.207Z,98.50
2022-08-30T05:01:11.542Z,98.40
2022-08-30T05:03:38.749Z,98.30
2022-08-30T05:06:05.568Z,98.60
2022-08-30T05:08:32.312Z,98.30
2022-08-30T05:10:59.108Z,97.90
2022-08-30T05:13:26.254Z,97.90
2022-08-30T05:16:04.866Z,97.80
2022-08-30T05:18:31.779Z,97.90
2022-08-30T05:21:05.484Z,97.70
2022-08-30T05:23:32.110Z,97.70
2022-08-30T05:25:58.827Z,97.90
2022-08-30T05:28:26.304Z,97.80
2022-08-30T05:30:53.166Z,97.80
2022-08-30T05:33:19.798Z,97.90
2022-08-30T05:35:46.602Z,97.80
2022-08-30T05:38:13.292Z,97.70
2022-08-30T05:40:43.742Z,97.80
2022-08-30T05:43:11.778Z,97.70
2022-08-30T05:45:38.417Z,97.60
2022-08-30T05:48:05.458Z,98.10
2022-08-30T05:50:33.384Z,98.10
2022-08-30T05:53:00.746Z,97.70
2022-08-30T05:55:27.374Z,97.60
2022-08-30T05:57:54.474Z,97.30
2022-08-30T06:00:21.246Z,97.30
2022-08-30T06:02:47.977Z,97.50
2022-08-30T06:05:14.765Z,96.90
2022-08-30T06:07:42.688Z,96.80
2022-08-30T06:10:09.630Z,96.50
2022-08-30T06:12:36.345Z,96.50
2022-08-30T06:15:03.104Z,96.40
2022-08-30T06:17:29.825Z,95.80
2022-08-30T06:19:56.557Z,95.50
2022-08-30T06:22:23.175Z,95.00
2022-08-30T06:24:58.032Z,94.90
2022-08-30T06:27:24.961Z,94.80
2022-08-30T06:29:52.323Z,94.40
2022-08-30T06:32:19.100Z,94.20
2022-08-30T06:34:45.767Z,94.00
2022-08-30T06:37:12.658Z,94.20
2022-08-30T06:39:57.939Z,93.80
2022-08-30T06:42:30.674Z,93.80
2022-08-30T06:44:58.988Z,93.70
2022-08-30T06:47:26.242Z,93.10
2022-08-30T06:49:53.186Z,92.80
2022-08-30T06:52:20.141Z,92.60
2022-08-30T06:54:47.412Z,92.70
2022-08-30T06:57:14.334Z,93.10
2022-08-30T06:59:41.377Z,93.20
2022-08-30T07:02:08.770Z,92.70
2022-08-30T07:04:35.889Z,92.90
2022-08-30T07:07:03.039Z,92.50
2022-08-30T07:11:56.845Z,92.80
2022-08-30T07:14:23.659Z,92.80
2022-08-30T07:16:51.244Z,92.40
2022-08-30T07:19:21.045Z,92.90
2022-08-30T07:21:49.623Z,92.30
2022-08-30T07:24:16.963Z,92.40
2022-08-30T07:26:49.044Z,92.30
2022-08-30T07:29:18.439Z,92.40
2022-08-30T07:31:45.590Z,92.50
2022-08-30T07:37:03.849Z,91.80
2022-08-30T07:39:44.529Z,91.60
2022-08-30T07:42:12.788Z,91.80
2022-08-30T07:44:39.830Z,91.40
2022-08-30T07:47:06.779Z,91.70
2022-08-30T07:49:33.836Z,91.60
2022-08-30T07:52:00.975Z,91.70
2022-08-30T07:54:27.815Z,91.70
2022-08-30T07:56:55.897Z,91.80
2022-08-30T08:02:14.848Z,91.70
2022-08-30T08:04:41.867Z,91.70
2022-08-30T08:07:09.064Z,91.70
2022-08-30T08:09:37.949Z,91.50
2022-08-30T08:12:06.747Z,91.80
2022-08-30T08:17:24.818Z,91.20
2022-08-30T08:19:52.252Z,91.30
2022-08-30T08:22:21.367Z,90.80
2022-08-30T08:24:49.329Z,91.00
2022-08-30T08:27:17.183Z,90.60
2022-08-30T08:29:44.643Z,90.60
2022-08-30T08:32:11.384Z,90.40
2022-08-30T08:34:38.432Z,90.40
2022-08-30T08:37:05.377Z,90.30
2022-08-30T08:39:32.319Z,90.10
2022-08-30T08:42:22.218Z,90.10
2022-08-30T08:45:19.659Z,88.90
2022-08-30T08:48:07.209Z,86.20
2022-08-30T08:53:45.776Z,86.00
2022-08-30T08:56:17.802Z,85.70
2022-08-30T09:01:46.851Z,86.20
2022-08-30T09:04:23.065Z,85.50
2022-08-30T09:06:57.283Z,84.80
2022-08-30T09:09:31.189Z,84.30
2022-08-30T09:11:58.238Z,84.30
2022-08-30T09:14:38.910Z,84.30
2022-08-30T09:17:05.847Z,84.20
2022-08-30T09:22:50.120Z,85.00
2022-08-30T09:25:27.271Z,84.50
2022-08-30T09:27:56.134Z,83.90
2022-08-30T09:30:28.521Z,83.60
2022-08-30T09:32:58.379Z,83.20
2022-08-30T09:35:37.370Z,82.30
2022-08-30T09:38:09.516Z,81.70
2022-08-30T09:40:51.092Z,80.20
2022-08-30T09:43:17.647Z,80.80
2022-08-30T09:48:40.717Z,78.60
2022-08-30T09:51:10.243Z,78.50
2022-08-30T09:59:58.618Z,79.30
2022-08-30T10:03:03.298Z,77.80
2022-08-30T10:05:52.416Z,77.30
2022-08-30T10:08:38.146Z,77.70
2022-08-30T10:11:24.094Z,77.50
2022-08-30T10:14:15.239Z,79.00
2022-08-30T10:16:57.199Z,77.80
2022-08-30T10:19:45.127Z,77.50
2022-08-30T10:22:24.586Z,75.10
2022-08-30T10:25:16.711Z,75.40
2022-08-30T10:27:53.593Z,75.70
2022-08-30T10:30:20.437Z,75.80
2022-08-30T10:32:49.953Z,74.60
2022-08-30T10:35:22.374Z,75.10
2022-08-30T10:37:58.489Z,75.30
2022-08-30T10:41:00.767Z,74.60
2022-08-30T10:43:54.844Z,74.20
2022-08-30T10:46:36.530Z,72.70
2022-08-30T10:49:08.635Z,73.10
2022-08-30T10:51:44.669Z,72.10
2022-08-30T10:54:21.020Z,71.70
2022-08-30T10:56:51.465Z,71.30
2022-08-30T10:59:19.733Z,70.70
2022-08-30T11:02:06.265Z,70.30
2022-08-30T11:04:55.400Z,70.00
2022-08-30T11:08:00.551Z,69.50
2022-08-30T11:10:51.037Z,69.10
2022-08-30T11:16:35.518Z,68.90
2022-08-30T11:19:03.091Z,69.90
2022-08-30T11:21:36.063Z,70.20
2022-08-30T11:24:22.357Z,70.10
2022-08-30T11:29:46.432Z,68.90
2022-08-30T11:32:25.685Z,69.20
2022-08-30T11:34:58.467Z,70.60
2022-08-30T11:37:43.255Z,70.10
2022-08-30T11:40:20.744Z,69.60
2022-08-30T11:42:55.464Z,69.30
2022-08-30T11:45:28.085Z,69.10
2022-08-30T11:51:11.603Z,70.20
2022-08-30T11:54:21.748Z,69.60
2022-08-30T12:00:12.112Z,70.20
2022-08-30T12:02:51.168Z,69.20
2022-08-30T12:08:34.541Z,66.70
2022-08-30T12:11:09.271Z,67.30
2022-08-30T12:13:40.297Z,68.50
2022-08-30T12:16:23.391Z,68.90
2022-08-30T12:19:00.922Z,68.60
2022-08-30T12:21:43.668Z,69.70
2022-08-30T12:24:28.349Z,69.80
2022-08-30T12:26:55.034Z,68.90
2022-08-30T12:29:27.663Z,69.00
2022-08-30T12:31:58.269Z,69.20
2022-08-30T12:34:48.915Z,69.40
2022-08-30T12:37:31.913Z,69.80
2022-08-30T12:40:21.652Z,68.70
2022-08-30T12:42:53.430Z,68.90
2022-08-30T12:45:23.593Z,69.00
2022-08-30T12:48:00.217Z,68.30
2022-08-30T12:50:31.409Z,68.20
2022-08-30T12:53:14.275Z,68.70
2022-08-30T12:55:55.055Z,69.40
2022-08-30T12:58:57.037Z,68.90
2022-08-30T13:01:28.741Z,69.30
2022-08-30T13:03:59.850Z,69.80
2022-08-30T13:06:39.567Z,70.90
2022-08-30T13:09:06.412Z,71.00
2022-08-30T13:11:33.094Z,71.20
2022-08-30T13:14:20.884Z,71.40
2022-08-30T13:16:48.014Z,71.70
2022-08-30T13:19:32.793Z,72.50
2022-08-30T13:22:00.562Z,71.80
2022-08-30T13:24:28.407Z,71.30
2022-08-30T13:26:58.436Z,71.50
2022-08-30T13:29:28.767Z,72.00
2022-08-30T13:31:56.145Z,72.30
2022-08-30T13:34:23.488Z,71.20
2022-08-30T13:36:53.931Z,71.30
2022-08-30T13:39:21.754Z,71.90
2022-08-30T13:41:48.897Z,71.70
2022-08-30T13:44:16.271Z,71.40
2022-08-30T13:46:53.098Z,71.40
2022-08-30T13:52:20.928Z,71.30
2022-08-30T13:54:50.370Z,70.80
2022-08-30T13:57:53.653Z,71.20
2022-08-30T14:00:12.192Z,71.60
2022-08-30T14:02:44.348Z,71.60
2022-08-30T14:05:30.763Z,72.00
2022-08-30T14:07:59.244Z,71.40
2022-08-30T14:10:31.906Z,71.00
2022-08-30T14:13:07.926Z,71.40
2022-08-30T14:15:38.723Z,71.30
2022-08-30T14:18:07.323Z,71.70
2022-08-30T14:20:35.477Z,71.60
2022-08-30T14:23:07.672Z,71.10
2022-08-30T14:25:37.477Z,71.60
2022-08-30T14:28:04.335Z,72.30
2022-08-30T14:30:31.749Z,72.30
2022-08-30T14:32:59.973Z,71.90
2022-08-30T14:35:26.815Z,71.80
2022-08-30T14:37:54.471Z,71.50
2022-08-30T14:40:21.695Z,70.90
2022-08-30T14:42:48.639Z,70.80
2022-08-30T14:45:15.742Z,72.20
2022-08-30T14:47:43.546Z,71.70
2022-08-30T14:50:10.554Z,72.20
2022-08-30T14:52:37.222Z,72.00
2022-08-30T14:55:08.797Z,71.60
2022-08-30T14:57:38.212Z,72.30
2022-08-30T15:00:08.453Z,72.80
2022-08-30T15:02:35.144Z,72.00
2022-08-30T15:05:02.200Z,71.80
2022-08-30T15:07:28.822Z,72.10
2022-08-30T15:09:55.710Z,72.10
2022-08-30T15:12:22.325Z,72.60
2022-08-30T15:14:49.054Z,72.40
2022-08-30T15:17:17.858Z,72.80
2022-08-30T15:19:44.842Z,72.40
2022-08-30T15:22:11.565Z,72.70
2022-08-30T15:24:38.281Z,73.00
2022-08-30T15:27:05.029Z,73.00
2022-08-30T15:29:33.099Z,72.60
2022-08-30T15:32:02.577Z,73.00
2022-08-30T15:34:30.769Z,73.90
2022-08-30T15:36:57.943Z,73.70
2022-08-30T15:39:25.254Z,73.70
2022-08-30T15:41:56.077Z,73.50
2022-08-30T15:44:26.655Z,73.80
2022-08-30T15:46:53.484Z,73.10
2022-08-30T15:49:22.166Z,73.60
2022-08-30T15:51:51.607Z,74.10
2022-08-30T15:54:23.441Z,73.60
2022-08-30T15:56:52.247Z,73.50
2022-08-30T15:59:19.592Z,73.00
2022-08-30T16:01:47.677Z,73.60
2022-08-30T16:04:18.568Z,73.50
2022-08-30T16:06:46.448Z,73.60
2022-08-30T16:09:13.796Z,74.10
2022-08-30T16:11:40.742Z,73.60
2022-08-30T16:14:08.109Z,73.20
2022-08-30T16:16:41.132Z,73.20
2022-08-30T16:19:09.093Z,73.00
2022-08-30T16:21:36.937Z,73.10
2022-08-30T16:24:06.520Z,73.00
2022-08-30T16:26:34.425Z,73.30
2022-08-30T16:29:01.871Z,73.40
2022-08-30T16:31:30.427Z,73.30
2022-08-30T16:34:03.649Z,73.30
2022-08-30T16:36:33.447Z,73.50
2022-08-30T16:39:00.721Z,74.20
2022-08-30T16:41:28.395Z,73.70
2022-08-30T16:43:55.733Z,73.40
2022-08-30T16:46:27.236Z,73.60
2022-08-30T16:48:59.264Z,74.10
2022-08-30T16:51:28.866Z,74.20
2022-08-30T16:54:00.732Z,73.90
2022-08-30T16:56:29.867Z,74.40
2022-08-30T16:59:02.008Z,74.10
2022-08-30T17:01:31.795Z,74.10
2022-08-30T17:03:59.275Z,74.40
2022-08-30T17:06:26.200Z,75.00
2022-08-30T17:08:55.851Z,76.00
2022-08-30T17:11:23.996Z,76.60
2022-08-30T17:13:51.103Z,76.50
2022-08-30T17:16:22.330Z,76.50
2022-08-30T17:18:55.466Z,75.30
2022-08-30T17:21:22.088Z,75.90
2022-08-30T17:23:49.937Z,75.50
2022-08-30T17:26:17.186Z,76.60
2022-08-30T17:28:44.188Z,76.00
2022-08-30T17:31:11.346Z,76.60
2022-08-30T17:33:39.918Z,77.10
2022-08-30T17:36:07.461Z,76.50
2022-08-30T17:38:34.305Z,76.70
2022-08-30T17:41:09.063Z,76.90
2022-08-30T17:43:37.309Z,77.60
2022-08-30T17:46:09.892Z,77.10
2022-08-30T17:48:38.563Z,77.70
2022-08-30T17:51:06.309Z,77.80
2022-08-30T17:53:35.142Z,77.90
2022-08-30T17:56:02.307Z,78.20
2022-08-30T17:58:29.125Z,78.00
2022-08-30T18:01:15.223Z,78.70
2022-08-30T18:03:42.385Z,78.20
2022-08-30T18:06:12.990Z,78.40
2022-08-30T18:08:40.146Z,78.40
2022-08-30T18:11:07.300Z,78.60
2022-08-30T18:13:35.412Z,79.20
2022-08-30T18:16:03.412Z,79.30
2022-08-30T18:18:30.800Z,79.20
2022-08-30T18:20:59.181Z,79.60
2022-08-30T18:23:26.751Z,79.30
2022-08-30T18:26:02.090Z,80.20
2022-08-30T18:28:29.099Z,80.20
2022-08-30T18:30:57.010Z,80.00
2022-08-30T18:33:29.013Z,80.30
2022-08-30T18:35:56.679Z,80.20
2022-08-30T18:38:24.603Z,80.20
2022-08-30T18:40:57.102Z,80.50
2022-08-30T18:43:24.736Z,80.80
2022-08-30T18:46:01.274Z,80.60
2022-08-30T18:48:27.978Z,80.80
2022-08-30T18:50:54.641Z,80.80
2022-08-30T18:53:28.734Z,81.50
2022-08-30T18:55:57.085Z,81.20
2022-08-30T18:58:23.803Z,81.20
2022-08-30T19:00:51.003Z,81.90
2022-08-30T19:03:18.409Z,81.60
2022-08-30T19:05:45.896Z,81.50
2022-08-30T19:08:13.488Z,81.80
2022-08-30T19:10:40.900Z,81.90
2022-08-30T19:13:08.045Z,81.60
2022-08-30T19:15:35.717Z,81.60
2022-08-30T19:18:06.755Z,81.80
2022-08-30T19:20:44.429Z,82.20
2022-08-30T19:23:11.067Z,82.60
2022-08-30T19:25:40.062Z,82.10
2022-08-30T19:28:07.081Z,82.80
2022-08-30T19:30:34.526Z,82.60
2022-08-30T19:33:01.430Z,82.80
2022-08-30T19:35:29.972Z,82.50
2022-08-30T19:37:57.866Z,82.50
2022-08-30T19:40:25.614Z,82.90
2022-08-30T19:42:52.778Z,82.90
2022-08-30T19:45:21.774Z,82.90
2022-08-30T19:47:49.668Z,83.20
2022-08-30T19:50:17.067Z,82.90
2022-08-30T19:52:51.028Z,83.30
2022-08-30T19:55:23.805Z,83.20
2022-08-30T19:57:55.781Z,83.10
2022-08-30T20:00:23.402Z,83.00
2022-08-30T20:02:51.349Z,83.60
2022-08-30T20:05:19.125Z,83.40
2022-08-30T20:07:51.180Z,83.80
2022-08-30T20:10:20.572Z,83.60
2022-08-30T20:12:49.888Z,83.90
2022-08-30T20:15:18.105Z,83.90
2022-08-30T20:18:03.094Z,83.90
2022-08-30T20:20:31.850Z,84.10
2022-08-30T20:23:00.559Z,83.80
2022-08-30T20:25:28.989Z,83.70
2022-08-30T20:27:55.996Z,83.80
2022-08-30T20:30:22.690Z,84.10
2022-08-30T20:32:49.367Z,84.20
2022-08-30T20:35:17.633Z,84.10
2022-08-30T20:37:45.464Z,84.20
2022-08-30T20:40:15.953Z,84.00
2022-08-30T20:42:45.383Z,84.10
2022-08-30T20:45:14.963Z,84.20
2022-08-30T20:47:42.786Z,84.10
2022-08-30T20:50:13.484Z,84.10
2022-08-30T20:52:40.699Z,83.80
2022-08-30T20:55:08.362Z,84.10
2022-08-30T20:57:35.022Z,84.00
2022-08-30T21:00:02.360Z,84.20
2022-08-30T21:02:29.127Z,84.10
2022-08-30T21:04:56.014Z,84.20
2022-08-30T21:07:22.791Z,84.40
2022-08-30T21:09:50.373Z,84.20
2022-08-30T21:12:17.174Z,84.50
2022-08-30T21:14:43.812Z,84.30
2022-08-30T21:17:10.449Z,84.00
2022-08-30T21:19:39.878Z,84.20
2022-08-30T21:22:10.430Z,84.30
2022-08-30T21:24:37.326Z,84.40
2022-08-30T21:27:04.327Z,84.50
2022-08-30T21:29:33.206Z,84.80
2022-08-30T21:32:00.021Z,84.60
2022-08-30T21:34:26.733Z,84.90
2022-08-30T21:36:53.704Z,85.00
2022-08-30T21:39:23.231Z,84.80
2022-08-30T21:41:52.192Z,84.90
2022-08-30T21:44:22.208Z,84.80
2022-08-30T21:46:52.236Z,85.10
2022-08-30T21:49:22.157Z,85.40
2022-08-30T21:51:50.611Z,85.40
2022-08-30T21:54:18.906Z,85.80
2022-08-30T21:56:47.898Z,85.60
2022-08-30T21:59:15.657Z,85.70
2022-08-30T22:01:43.463Z,85.40
2022-08-30T22:04:12.351Z,85.90
2022-08-30T22:06:43.437Z,86.00
2022-08-30T22:09:13.869Z,86.10
2022-08-30T22:11:43.614Z,86.00
2022-08-30T22:14:12.260Z,86.10
2022-08-30T22:16:40.484Z,86.40
2022-08-30T22:19:08.192Z,86.10
2022-08-30T22:21:37.085Z,86.40
2022-08-30T22:24:04.647Z,86.50
2022-08-30T22:26:33.431Z,86.70
2022-08-30T22:29:00.490Z,86.60
2022-08-30T22:31:28.088Z,87.00
2022-08-30T22:33:55.397Z,86.70
2022-08-30T22:36:32.308Z,86.80
2022-08-30T22:41:52.296Z,87.30
2022-08-30T22:44:19.526Z,87.20
2022-08-30T22:46:46.574Z,87.30
2022-08-30T22:49:13.925Z,87.30
2022-08-30T22:51:41.772Z,87.40
2022-08-30T22:54:09.656Z,87.40
2022-08-30T22:56:38.245Z,87.30
2022-08-30T22:59:06.003Z,87.40
2022-08-30T23:01:37.311Z,87.40
2022-08-30T23:04:07.271Z,88.00
2022-08-30T23:06:34.419Z,87.80
2022-08-30T23:09:01.614Z,87.80
2022-08-30T23:11:30.594Z,87.70
2022-08-30T23:14:00.682Z,88.00
2022-08-30T23:16:27.679Z,88.40
2022-08-30T23:18:55.627Z,88.00
2022-08-30T23:21:25.624Z,88.00
2022-08-30T23:24:12.426Z,88.20
2022-08-30T23:26:59.933Z,88.10
2022-08-30T23:29:45.815Z,88.40
2022-08-30T23:32:32.183Z,88.70
2022-08-30T23:35:18.076Z,88.50
2022-08-30T23:38:04.849Z,88.90
2022-08-30T23:40:50.173Z,89.00
2022-08-30T23:43:35.573Z,88.60
2022-08-30T23:46:21.477Z,89.10
2022-08-30T23:49:07.959Z,88.90
2022-08-30T23:51:54.783Z,89.20
2022-08-30T23:54:40.139Z,89.00
2022-08-30T23:57:25.718Z,89.40
